Terminal Aerodrome Forecast
Issued by NWS Louisville, KY

Home | Current Version | Previous Version | Text Only | Print | Product List | Glossary On
Versions: 1 2 3 4 5 6 7 8 9 10 11 12 13 14 15 16
000
FTUS43 KLMK 181700
TAFSDF
TAF
KSDF 181726Z 1818/1924 08008KT P6SM SCT250
     FM190500 09007KT P6SM SCT070 BKN150
     FM191000 11007KT P6SM -SHRA SCT025 BKN035
     FM191200 12010KT 6SM -SHRA BR VCTS BKN015CB
     FM191600 23012KT P6SM -SHRA BKN035=

USA.gov is the U.S. government's official web portal to all federal, state and local government web resources and services.